sensor_id;sensor_type;location;lat;lon;timestamp;pressure;altitude;pressure_sealevel;temperature;humidity
53440;BME280;39333;47.044;15.080;2023-02-01T00:00:31;96293.81;;;-0.73;62.97
53440;BME280;39333;47.044;15.080;2023-02-01T00:03:00;96284.78;;;-0.62;63.57
53440;BME280;39333;47.044;15.080;2023-02-01T00:05:27;96285.97;;;-0.65;63.47
53440;BME280;39333;47.044;15.080;2023-02-01T00:07:54;96289.19;;;-0.63;63.66
53440;BME280;39333;47.044;15.080;2023-02-01T00:10:21;96291.50;;;-0.68;63.52
53440;BME280;39333;47.044;15.080;2023-02-01T00:12:49;96270.50;;;-0.66;63.10
53440;BME280;39333;47.044;15.080;2023-02-01T00:15:16;96276.66;;;-0.59;63.37
53440;BME280;39333;47.044;15.080;2023-02-01T00:17:43;96280.91;;;-0.97;63.46
53440;BME280;39333;47.044;15.080;2023-02-01T00:20:10;96276.63;;;-1.46;64.81
53440;BME280;39333;47.044;15.080;2023-02-01T00:22:37;96285.94;;;-1.67;66.70
53440;BME280;39333;47.044;15.080;2023-02-01T00:25:04;96308.50;;;-1.52;66.59
53440;BME280;39333;47.044;15.080;2023-02-01T00:27:31;96293.38;;;-1.32;66.40
53440;BME280;39333;47.044;15.080;2023-02-01T00:29:58;96283.63;;;-1.30;65.52
53440;BME280;39333;47.044;15.080;2023-02-01T00:32:25;96282.31;;;-1.34;66.02
53440;BME280;39333;47.044;15.080;2023-02-01T00:34:52;96285.38;;;-1.22;65.64
53440;BME280;39333;47.044;15.080;2023-02-01T00:37:18;96292.47;;;-1.08;65.45
53440;BME280;39333;47.044;15.080;2023-02-01T00:39:47;96295.41;;;-1.11;65.08
53440;BME280;39333;47.044;15.080;2023-02-01T00:42:13;96298.22;;;-1.29;65.23
53440;BME280;39333;47.044;15.080;2023-02-01T00:44:40;96284.59;;;-1.39;65.35
53440;BME280;39333;47.044;15.080;2023-02-01T00:47:07;96288.13;;;-1.24;65.86
53440;BME280;39333;47.044;15.080;2023-02-01T00:49:34;96271.25;;;-1.44;66.20
53440;BME280;39333;47.044;15.080;2023-02-01T00:52:01;96290.41;;;-1.29;66.28
53440;BME280;39333;47.044;15.080;2023-02-01T00:54:28;96288.63;;;-1.28;65.93
53440;BME280;39333;47.044;15.080;2023-02-01T00:56:55;96278.22;;;-1.28;66.09
53440;BME280;39333;47.044;15.080;2023-02-01T00:59:22;96279.06;;;-1.36;66.15
53440;BME280;39333;47.044;15.080;2023-02-01T01:01:49;96272.56;;;-1.40;66.07
53440;BME280;39333;47.044;15.080;2023-02-01T01:04:16;96270.94;;;-1.33;66.21
53440;BME280;39333;47.044;15.080;2023-02-01T01:06:43;96270.91;;;-1.25;65.99
53440;BME280;39333;47.044;15.080;2023-02-01T01:09:10;96281.50;;;-1.34;66.15
53440;BME280;39333;47.044;15.080;2023-02-01T01:11:38;96264.81;;;-1.56;66.41
53440;BME280;39333;47.044;15.080;2023-02-01T01:14:07;96259.25;;;-1.45;66.54
53440;BME280;39333;47.044;15.080;2023-02-01T01:16:35;96256.22;;;-1.65;67.17
53440;BME280;39333;47.044;15.080;2023-02-01T01:19:02;96248.88;;;-1.61;67.23
53440;BME280;39333;47.044;15.080;2023-02-01T01:21:30;96243.63;;;-1.45;67.05
53440;BME280;39333;47.044;15.080;2023-02-01T01:23:57;96239.28;;;-1.53;66.94
53440;BME280;39333;47.044;15.080;2023-02-01T01:26:26;96253.75;;;-1.58;67.46
53440;BME280;39333;47.044;15.080;2023-02-01T01:28:55;96248.88;;;-1.53;67.29
53440;BME280;39333;47.044;15.080;2023-02-01T01:31:23;96242.16;;;-1.39;67.01
53440;BME280;39333;47.044;15.080;2023-02-01T01:33:51;96235.81;;;-1.37;66.76
53440;BME280;39333;47.044;15.080;2023-02-01T01:36:19;96236.63;;;-1.36;66.43
53440;BME280;39333;47.044;15.080;2023-02-01T01:38:46;96238.09;;;-1.34;66.12
53440;BME280;39333;47.044;15.080;2023-02-01T01:41:19;96244.66;;;-1.54;66.61
53440;BME280;39333;47.044;15.080;2023-02-01T01:46:19;96260.91;;;-1.77;67.48
53440;BME280;39333;47.044;15.080;2023-02-01T01:48:51;96247.13;;;-1.69;67.53
53440;BME280;39333;47.044;15.080;2023-02-01T01:51:22;96238.47;;;-1.61;67.35
53440;BME280;39333;47.044;15.080;2023-02-01T01:54:17;96232.31;;;-1.52;67.24
53440;BME280;39333;47.044;15.080;2023-02-01T01:56:46;96229.81;;;-1.46;66.60
53440;BME280;39333;47.044;15.080;2023-02-01T01:59:16;96210.66;;;-1.45;66.67
53440;BME280;39333;47.044;15.080;2023-02-01T02:01:43;96241.69;;;-1.43;66.61
53440;BME280;39333;47.044;15.080;2023-02-01T02:04:10;96210.97;;;-1.39;66.47
53440;BME280;39333;47.044;15.080;2023-02-01T02:06:55;96210.47;;;-1.43;66.37
53440;BME280;39333;47.044;15.080;2023-02-01T02:09:24;96206.41;;;-2.01;68.73
53440;BME280;39333;47.044;15.080;2023-02-01T02:11:51;96202.97;;;-2.01;69.43
53440;BME280;39333;47.044;15.080;2023-02-01T02:14:19;96203.97;;;-2.02;70.38
53440;BME280;39333;47.044;15.080;2023-02-01T02:41:47;96199.19;;;-1.74;68.78
53440;BME280;39333;47.044;15.080;2023-02-01T02:50:26;96196.97;;;-2.02;70.90
53440;BME280;39333;47.044;15.080;2023-02-01T02:53:16;96208.47;;;-1.88;70.05
53440;BME280;39333;47.044;15.080;2023-02-01T02:56:06;96197.94;;;-1.79;69.44
53440;BME280;39333;47.044;15.080;2023-02-01T02:58:53;96209.78;;;-1.92;69.79
53440;BME280;39333;47.044;15.080;2023-02-01T03:01:40;96200.06;;;-2.06;70.38
53440;BME280;39333;47.044;15.080;2023-02-01T03:04:26;96200.19;;;-1.92;69.55
53440;BME280;39333;47.044;15.080;2023-02-01T03:06:53;96183.31;;;-1.88;69.84
53440;BME280;39333;47.044;15.080;2023-02-01T03:09:31;96175.03;;;-1.91;69.30
53440;BME280;39333;47.044;15.080;2023-02-01T03:12:04;96202.63;;;-1.90;69.66
53440;BME280;39333;47.044;15.080;2023-02-01T03:14:57;96184.31;;;-1.97;69.67
53440;BME280;39333;47.044;15.080;2023-02-01T03:17:31;96190.97;;;-2.02;69.96
53440;BME280;39333;47.044;15.080;2023-02-01T03:20:01;96186.59;;;-2.34;72.02
53440;BME280;39333;47.044;15.080;2023-02-01T03:22:31;96173.63;;;-2.34;72.29
53440;BME280;39333;47.044;15.080;2023-02-01T03:25:13;96182.88;;;-2.32;72.14
53440;BME280;39333;47.044;15.080;2023-02-01T03:30:32;96165.81;;;-2.10;70.51
53440;BME280;39333;47.044;15.080;2023-02-01T03:33:04;96184.31;;;-2.21;71.26
53440;BME280;39333;47.044;15.080;2023-02-01T03:43:56;96175.56;;;-2.36;72.30
53440;BME280;39333;47.044;15.080;2023-02-01T03:46:33;96186.28;;;-2.31;72.11
53440;BME280;39333;47.044;15.080;2023-02-01T03:49:05;96199.09;;;-2.46;74.31
53440;BME280;39333;47.044;15.080;2023-02-01T03:51:36;96199.56;;;-2.42;73.21
53440;BME280;39333;47.044;15.080;2023-02-01T03:54:07;96205.13;;;-2.45;73.53
53440;BME280;39333;47.044;15.080;2023-02-01T03:56:38;96191.47;;;-2.39;73.22
53440;BME280;39333;47.044;15.080;2023-02-01T03:59:06;96195.38;;;-2.27;72.66
53440;BME280;39333;47.044;15.080;2023-02-01T04:01:35;96190.50;;;-2.30;73.41
53440;BME280;39333;47.044;15.080;2023-02-01T04:04:02;96194.41;;;-2.18;73.05
53440;BME280;39333;47.044;15.080;2023-02-01T04:06:29;96181.06;;;-2.23;72.75
53440;BME280;39333;47.044;15.080;2023-02-01T04:09:02;96189.38;;;-2.28;73.60
53440;BME280;39333;47.044;15.080;2023-02-01T04:11:29;96191.97;;;-2.20;73.35
53440;BME280;39333;47.044;15.080;2023-02-01T04:13:56;96202.03;;;-2.33;74.76
53440;BME280;39333;47.044;15.080;2023-02-01T04:16:23;96188.22;;;-2.25;74.10
53440;BME280;39333;47.044;15.080;2023-02-01T04:18:50;96185.94;;;-2.20;73.85
53440;BME280;39333;47.044;15.080;2023-02-01T04:21:16;96187.56;;;-2.19;74.47
53440;BME280;39333;47.044;15.080;2023-02-01T04:23:43;96182.19;;;-2.09;73.48
53440;BME280;39333;47.044;15.080;2023-02-01T04:26:10;96176.34;;;-2.03;72.49
53440;BME280;39333;47.044;15.080;2023-02-01T04:28:37;96173.28;;;-1.99;72.20
53440;BME280;39333;47.044;15.080;2023-02-01T04:31:04;96190.94;;;-1.94;71.98
53440;BME280;39333;47.044;15.080;2023-02-01T04:33:31;96178.09;;;-1.80;72.48
53440;BME280;39333;47.044;15.080;2023-02-01T04:35:58;96183.06;;;-1.62;72.55
53440;BME280;39333;47.044;15.080;2023-02-01T04:38:25;96177.34;;;-1.10;71.84
53440;BME280;39333;47.044;15.080;2023-02-01T04:40:53;96177.34;;;-0.79;69.77
53440;BME280;39333;47.044;15.080;2023-02-01T04:43:20;96187.91;;;-0.81;69.48
53440;BME280;39333;47.044;15.080;2023-02-01T04:45:50;96187.13;;;-0.81;69.11
53440;BME280;39333;47.044;15.080;2023-02-01T04:48:19;96188.53;;;-1.01;68.78
53440;BME280;39333;47.044;15.080;2023-02-01T04:50:48;96185.47;;;-1.13;69.59
53440;BME280;39333;47.044;15.080;2023-02-01T04:53:15;96190.00;;;-0.76;69.46
53440;BME280;39333;47.044;15.080;2023-02-01T04:55:43;96185.81;;;0.35;66.26
53440;BME280;39333;47.044;15.080;2023-02-01T04:58:10;96192.22;;;0.77;63.55
53440;BME280;39333;47.044;15.080;2023-02-01T05:00:37;96195.28;;;0.66;63.73
53440;BME280;39333;47.044;15.080;2023-02-01T05:03:04;96185.59;;;0.45;64.02
53440;BME280;39333;47.044;15.080;2023-02-01T05:05:32;96186.09;;;0.11;64.77
53440;BME280;39333;47.044;15.080;2023-02-01T05:07:59;96189.34;;;-0.10;65.67
53440;BME280;39333;47.044;15.080;2023-02-01T05:10:26;96182.56;;;-0.33;66.46
53440;BME280;39333;47.044;15.080;2023-02-01T05:12:52;96187.25;;;-0.52;66.89
53440;BME280;39333;47.044;15.080;2023-02-01T05:15:38;96175.00;;;-0.66;67.28
53440;BME280;39333;47.044;15.080;2023-02-01T05:18:05;96176.41;;;-0.86;68.55
53440;BME280;39333;47.044;15.080;2023-02-01T05:20:32;96185.13;;;-0.79;68.58
53440;BME280;39333;47.044;15.080;2023-02-01T05:22:59;96189.75;;;-0.81;68.66
53440;BME280;39333;47.044;15.080;2023-02-01T05:25:26;96194.25;;;-0.75;68.85
53440;BME280;39333;47.044;15.080;2023-02-01T05:27:53;96197.47;;;-0.73;68.65
53440;BME280;39333;47.044;15.080;2023-02-01T05:30:20;96192.13;;;-0.80;68.15
53440;BME280;39333;47.044;15.080;2023-02-01T05:32:51;96194.63;;;-0.86;68.28
53440;BME280;39333;47.044;15.080;2023-02-01T05:35:19;96197.63;;;-0.97;69.19
53440;BME280;39333;47.044;15.080;2023-02-01T05:37:46;96217.81;;;-0.99;69.62
53440;BME280;39333;47.044;15.080;2023-02-01T05:40:13;96206.59;;;-1.00;69.48
53440;BME280;39333;47.044;15.080;2023-02-01T05:42:40;96218.16;;;-1.11;69.83
53440;BME280;39333;47.044;15.080;2023-02-01T05:45:08;96200.81;;;-1.18;70.17
53440;BME280;39333;47.044;15.080;2023-02-01T05:47:35;96204.56;;;-1.21;70.53
53440;BME280;39333;47.044;15.080;2023-02-01T05:50:03;96202.66;;;-1.35;70.63
53440;BME280;39333;47.044;15.080;2023-02-01T05:52:30;96211.28;;;-1.34;70.56
53440;BME280;39333;47.044;15.080;2023-02-01T05:54:57;96199.09;;;-1.34;71.09
53440;BME280;39333;47.044;15.080;2023-02-01T05:57:24;96201.16;;;-1.29;70.31
53440;BME280;39333;47.044;15.080;2023-02-01T05:59:51;96192.75;;;-1.31;69.79
53440;BME280;39333;47.044;15.080;2023-02-01T06:02:18;96208.63;;;-1.26;70.38
53440;BME280;39333;47.044;15.080;2023-02-01T06:04:45;96216.44;;;-1.26;70.39
53440;BME280;39333;47.044;15.080;2023-02-01T06:07:12;96215.84;;;-1.36;70.85
53440;BME280;39333;47.044;15.080;2023-02-01T06:09:39;96218.44;;;-1.45;71.46
53440;BME280;39333;47.044;15.080;2023-02-01T06:12:06;96216.00;;;-1.38;71.34
53440;BME280;39333;47.044;15.080;2023-02-01T06:14:33;96207.16;;;-1.21;70.88
53440;BME280;39333;47.044;15.080;2023-02-01T06:17:00;96219.19;;;-1.20;70.63
53440;BME280;39333;47.044;15.080;2023-02-01T06:19:27;96218.22;;;-1.19;70.28
53440;BME280;39333;47.044;15.080;2023-02-01T06:21:54;96216.09;;;-1.23;70.22
53440;BME280;39333;47.044;15.080;2023-02-01T06:24:21;96217.56;;;-1.21;70.81
53440;BME280;39333;47.044;15.080;2023-02-01T06:26:50;96218.13;;;-1.02;69.95
53440;BME280;39333;47.044;15.080;2023-02-01T06:29:17;96211.56;;;-0.90;69.07
53440;BME280;39333;47.044;15.080;2023-02-01T06:31:43;96221.41;;;-0.78;69.26
53440;BME280;39333;47.044;15.080;2023-02-01T06:34:11;96228.41;;;-0.78;68.90
53440;BME280;39333;47.044;15.080;2023-02-01T06:36:37;96208.53;;;-0.71;68.73
53440;BME280;39333;47.044;15.080;2023-02-01T06:39:05;96226.88;;;-0.64;68.73
53440;BME280;39333;47.044;15.080;2023-02-01T06:41:31;96233.50;;;-0.54;68.71
53440;BME280;39333;47.044;15.080;2023-02-01T06:44:01;96223.41;;;-0.57;68.14
53440;BME280;39333;47.044;15.080;2023-02-01T06:46:28;96229.38;;;-0.48;68.43
53440;BME280;39333;47.044;15.080;2023-02-01T06:48:55;96227.19;;;-0.37;68.04
53440;BME280;39333;47.044;15.080;2023-02-01T06:51:26;96230.31;;;-0.41;67.70
53440;BME280;39333;47.044;15.080;2023-02-01T06:53:55;96223.66;;;-0.44;68.24
53440;BME280;39333;47.044;15.080;2023-02-01T06:56:22;96226.91;;;-0.42;68.38
53440;BME280;39333;47.044;15.080;2023-02-01T06:58:49;96242.66;;;-0.35;68.28
53440;BME280;39333;47.044;15.080;2023-02-01T07:01:16;96248.94;;;-0.07;67.44
53440;BME280;39333;47.044;15.080;2023-02-01T07:03:47;96235.66;;;0.03;66.77
53440;BME280;39333;47.044;15.080;2023-02-01T07:06:14;96233.91;;;0.18;66.43
53440;BME280;39333;47.044;15.080;2023-02-01T07:08:41;96234.63;;;0.12;66.53
53440;BME280;39333;47.044;15.080;2023-02-01T07:11:10;96255.03;;;0.09;67.49
53440;BME280;39333;47.044;15.080;2023-02-01T07:13:38;96250.09;;;0.14;67.67
53440;BME280;39333;47.044;15.080;2023-02-01T07:16:12;96240.84;;;0.26;67.39
53440;BME280;39333;47.044;15.080;2023-02-01T07:18:39;96238.16;;;0.34;67.24
53440;BME280;39333;47.044;15.080;2023-02-01T07:21:07;96239.59;;;0.37;67.54
53440;BME280;39333;47.044;15.080;2023-02-01T07:23:34;96240.81;;;0.49;67.90
53440;BME280;39333;47.044;15.080;2023-02-01T07:26:04;96230.63;;;0.68;67.05
53440;BME280;39333;47.044;15.080;2023-02-01T07:28:33;96222.38;;;0.94;65.53
53440;BME280;39333;47.044;15.080;2023-02-01T07:31:08;96227.41;;;1.32;64.64
53440;BME280;39333;47.044;15.080;2023-02-01T07:33:36;96225.72;;;1.60;64.43
53440;BME280;39333;47.044;15.080;2023-02-01T07:36:04;96238.41;;;1.85;63.73
53440;BME280;39333;47.044;15.080;2023-02-01T07:38:32;96228.44;;;2.16;61.38
53440;BME280;39333;47.044;15.080;2023-02-01T07:41:01;96233.88;;;2.42;61.75
53440;BME280;39333;47.044;15.080;2023-02-01T07:43:28;96235.69;;;2.76;61.57
53440;BME280;39333;47.044;15.080;2023-02-01T07:45:56;96248.75;;;3.04;59.37
53440;BME280;39333;47.044;15.080;2023-02-01T07:48:24;96242.00;;;3.23;58.19
53440;BME280;39333;47.044;15.080;2023-02-01T07:51:03;96254.81;;;3.59;56.26
53440;BME280;39333;47.044;15.080;2023-02-01T07:53:32;96249.66;;;3.92;55.47
53440;BME280;39333;47.044;15.080;2023-02-01T07:56:00;96259.78;;;4.15;55.19
53440;BME280;39333;47.044;15.080;2023-02-01T07:58:27;96264.63;;;4.44;53.57
53440;BME280;39333;47.044;15.080;2023-02-01T08:00:55;96257.34;;;4.86;51.27
53440;BME280;39333;47.044;15.080;2023-02-01T08:03:41;96261.66;;;5.32;49.99
53440;BME280;39333;47.044;15.080;2023-02-01T08:06:08;96261.13;;;5.61;47.63
53440;BME280;39333;47.044;15.080;2023-02-01T08:08:35;96259.59;;;5.91;47.33
53440;BME280;39333;47.044;15.080;2023-02-01T08:11:04;96267.19;;;6.06;46.50
53440;BME280;39333;47.044;15.080;2023-02-01T08:13:32;96259.53;;;6.29;47.03
53440;BME280;39333;47.044;15.080;2023-02-01T08:16:00;96257.97;;;6.22;46.47
53440;BME280;39333;47.044;15.080;2023-02-01T08:18:27;96264.31;;;6.39;46.14
53440;BME280;39333;47.044;15.080;2023-02-01T08:20:54;96267.75;;;6.40;44.98
53440;BME280;39333;47.044;15.080;2023-02-01T08:23:22;96259.63;;;6.48;44.47
53440;BME280;39333;47.044;15.080;2023-02-01T08:25:49;96243.59;;;6.49;44.43
53440;BME280;39333;47.044;15.080;2023-02-01T08:28:16;96259.41;;;6.49;44.55
53440;BME280;39333;47.044;15.080;2023-02-01T08:30:43;96259.81;;;6.46;44.04
53440;BME280;39333;47.044;15.080;2023-02-01T08:33:10;96260.13;;;6.31;44.20
53440;BME280;39333;47.044;15.080;2023-02-01T08:35:38;96260.59;;;6.22;44.79
53440;BME280;39333;47.044;15.080;2023-02-01T08:38:10;96260.19;;;5.93;45.48
53440;BME280;39333;47.044;15.080;2023-02-01T08:40:36;96268.41;;;5.66;45.99
53440;BME280;39333;47.044;15.080;2023-02-01T08:43:03;96245.16;;;5.62;46.10
53440;BME280;39333;47.044;15.080;2023-02-01T08:45:30;96249.78;;;5.67;46.39
53440;BME280;39333;47.044;15.080;2023-02-01T08:47:57;96260.78;;;5.51;46.58
53440;BME280;39333;47.044;15.080;2023-02-01T08:50:24;96262.41;;;5.45;46.06
53440;BME280;39333;47.044;15.080;2023-02-01T08:52:52;96259.19;;;5.43;46.03
53440;BME280;39333;47.044;15.080;2023-02-01T08:55:20;96259.38;;;5.42;46.16
53440;BME280;39333;47.044;15.080;2023-02-01T08:57:47;96260.41;;;5.41;46.23
53440;BME280;39333;47.044;15.080;2023-02-01T09:00:16;96261.81;;;5.37;47.65
53440;BME280;39333;47.044;15.080;2023-02-01T09:02:43;96259.66;;;5.20;49.44
53440;BME280;39333;47.044;15.080;2023-02-01T09:05:11;96254.72;;;5.44;48.25
53440;BME280;39333;47.044;15.080;2023-02-01T09:07:38;96259.03;;;5.76;47.51
53440;BME280;39333;47.044;15.080;2023-02-01T09:10:06;96260.19;;;5.93;47.58
53440;BME280;39333;47.044;15.080;2023-02-01T09:12:33;96267.06;;;5.94;46.74
53440;BME280;39333;47.044;15.080;2023-02-01T09:15:01;96251.50;;;6.18;45.78
53440;BME280;39333;47.044;15.080;2023-02-01T09:17:28;96252.06;;;6.51;45.28
53440;BME280;39333;47.044;15.080;2023-02-01T09:19:56;96239.06;;;6.56;44.62
53440;BME280;39333;47.044;15.080;2023-02-01T09:22:23;96244.25;;;7.06;45.54
53440;BME280;39333;47.044;15.080;2023-02-01T09:24:51;96246.09;;;7.60;43.17
53440;BME280;39333;47.044;15.080;2023-02-01T09:27:21;96232.34;;;7.70;42.57
53440;BME280;39333;47.044;15.080;2023-02-01T09:29:47;96234.94;;;7.88;41.79
53440;BME280;39333;47.044;15.080;2023-02-01T09:32:21;96237.53;;;8.06;41.45
53440;BME280;39333;47.044;15.080;2023-02-01T09:34:49;96230.28;;;8.32;40.62
53440;BME280;39333;47.044;15.080;2023-02-01T09:37:16;96230.31;;;8.78;40.39
53440;BME280;39333;47.044;15.080;2023-02-01T09:39:43;96232.25;;;8.95;39.75
53440;BME280;39333;47.044;15.080;2023-02-01T09:47:59;96209.38;;;9.00;40.57
53440;BME280;39333;47.044;15.080;2023-02-01T09:50:35;96210.78;;;9.43;41.19
53440;BME280;39333;47.044;15.080;2023-02-01T09:55:50;96225.50;;;10.36;37.39
53440;BME280;39333;47.044;15.080;2023-02-01T09:58:20;96205.69;;;10.55;36.18
53440;BME280;39333;47.044;15.080;2023-02-01T10:01:00;96204.78;;;10.49;36.90
53440;BME280;39333;47.044;15.080;2023-02-01T10:03:30;96214.09;;;10.19;36.83
53440;BME280;39333;47.044;15.080;2023-02-01T10:06:26;96199.81;;;10.53;37.58
53440;BME280;39333;47.044;15.080;2023-02-01T10:11:46;96176.34;;;10.45;36.93
53440;BME280;39333;47.044;15.080;2023-02-01T10:25:53;96184.63;;;9.18;38.03
53440;BME280;39333;47.044;15.080;2023-02-01T10:28:21;96178.09;;;9.49;38.83
53440;BME280;39333;47.044;15.080;2023-02-01T10:30:54;96170.00;;;9.27;38.00
53440;BME280;39333;47.044;15.080;2023-02-01T10:33:26;96158.78;;;8.97;37.59
53440;BME280;39333;47.044;15.080;2023-02-01T10:36:13;96163.59;;;9.11;38.65
53440;BME280;39333;47.044;15.080;2023-02-01T10:38:43;96167.16;;;9.17;38.28
53440;BME280;39333;47.044;15.080;2023-02-01T10:41:16;96165.81;;;9.03;38.08
53440;BME280;39333;47.044;15.080;2023-02-01T10:43:47;96149.06;;;8.86;38.37
53440;BME280;39333;47.044;15.080;2023-02-01T10:46:16;96151.22;;;8.77;39.01
53440;BME280;39333;47.044;15.080;2023-02-01T10:48:43;96151.03;;;8.67;38.66
53440;BME280;39333;47.044;15.080;2023-02-01T10:53:57;96146.53;;;8.91;39.16
53440;BME280;39333;47.044;15.080;2023-02-01T10:56:27;96151.50;;;8.75;39.68
53440;BME280;39333;47.044;15.080;2023-02-01T10:59:06;96144.94;;;8.66;39.48
53440;BME280;39333;47.044;15.080;2023-02-01T11:01:42;96137.16;;;8.60;39.01
53440;BME280;39333;47.044;15.080;2023-02-01T11:04:16;96150.00;;;8.56;39.82
53440;BME280;39333;47.044;15.080;2023-02-01T11:07:16;96161.84;;;8.42;39.85
53440;BME280;39333;47.044;15.080;2023-02-01T11:09:50;96157.59;;;8.41;39.21
53440;BME280;39333;47.044;15.080;2023-02-01T11:12:28;96147.03;;;8.41;39.30
53440;BME280;39333;47.044;15.080;2023-02-01T11:15:03;96170.44;;;8.49;39.57
53440;BME280;39333;47.044;15.080;2023-02-01T11:17:43;96133.59;;;8.43;39.04
53440;BME280;39333;47.044;15.080;2023-02-01T11:20:20;96146.34;;;8.57;38.83
53440;BME280;39333;47.044;15.080;2023-02-01T11:22:57;96139.53;;;8.61;38.02
53440;BME280;39333;47.044;15.080;2023-02-01T11:25:24;96154.81;;;8.36;38.54
53440;BME280;39333;47.044;15.080;2023-02-01T11:27:54;96149.06;;;8.86;38.08
53440;BME280;39333;47.044;15.080;2023-02-01T11:30:37;96129.31;;;8.76;37.93
53440;BME280;39333;47.044;15.080;2023-02-01T11:33:12;96122.16;;;8.89;38.36
53440;BME280;39333;47.044;15.080;2023-02-01T11:35:41;96131.66;;;9.41;36.97
53440;BME280;39333;47.044;15.080;2023-02-01T11:38:29;96123.50;;;9.60;36.79
53440;BME280;39333;47.044;15.080;2023-02-01T11:41:14;96105.84;;;9.20;36.42
53440;BME280;39333;47.044;15.080;2023-02-01T11:43:59;96107.75;;;9.08;36.97
53440;BME280;39333;47.044;15.080;2023-02-01T11:46:32;96106.94;;;9.36;37.63
53440;BME280;39333;47.044;15.080;2023-02-01T11:49:23;96111.72;;;9.22;36.98
53440;BME280;39333;47.044;15.080;2023-02-01T11:52:05;96107.75;;;9.36;37.32
53440;BME280;39333;47.044;15.080;2023-02-01T11:54:52;96113.91;;;9.13;37.44
53440;BME280;39333;47.044;15.080;2023-02-01T12:03:35;96099.22;;;9.63;37.26
53440;BME280;39333;47.044;15.080;2023-02-01T12:22:08;96066.16;;;10.49;35.24
53440;BME280;39333;47.044;15.080;2023-02-01T12:25:03;96075.66;;;10.67;34.70
53440;BME280;39333;47.044;15.080;2023-02-01T12:27:41;96071.31;;;10.39;34.31
53440;BME280;39333;47.044;15.080;2023-02-01T12:35:37;96058.16;;;10.66;32.98
53440;BME280;39333;47.044;15.080;2023-02-01T12:43:22;96081.69;;;10.62;31.66
53440;BME280;39333;47.044;15.080;2023-02-01T12:49:11;96068.59;;;10.34;32.48
53440;BME280;39333;47.044;15.080;2023-02-01T12:51:25;96075.66;;;10.67;31.83
53440;BME280;39333;47.044;15.080;2023-02-01T12:53:57;96061.84;;;10.65;32.30
53440;BME280;39333;47.044;15.080;2023-02-01T12:56:37;96061.16;;;10.74;33.10
53440;BME280;39333;47.044;15.080;2023-02-01T13:02:01;96063.50;;;10.49;31.15
53440;BME280;39333;47.044;15.080;2023-02-01T13:05:07;96066.97;;;10.33;31.14
53440;BME280;39333;47.044;15.080;2023-02-01T13:07:59;96071.06;;;10.07;31.90
53440;BME280;39333;47.044;15.080;2023-02-01T13:15:49;96078.59;;;10.48;30.05
53440;BME280;39333;47.044;15.080;2023-02-01T13:18:22;96066.66;;;10.29;31.18
53440;BME280;39333;47.044;15.080;2023-02-01T13:21:03;96079.03;;;10.62;32.42
53440;BME280;39333;47.044;15.080;2023-02-01T13:23:34;96092.75;;;10.98;30.38
53440;BME280;39333;47.044;15.080;2023-02-01T13:26:02;96093.06;;;10.41;31.70
53440;BME280;39333;47.044;15.080;2023-02-01T13:28:42;96090.69;;;10.23;32.11
53440;BME280;39333;47.044;15.080;2023-02-01T13:31:31;96096.25;;;10.09;32.39
53440;BME280;39333;47.044;15.080;2023-02-01T13:42:56;96111.59;;;10.07;32.61
53440;BME280;39333;47.044;15.080;2023-02-01T13:45:27;96096.91;;;10.16;33.13
53440;BME280;39333;47.044;15.080;2023-02-01T13:47:59;96098.91;;;9.93;34.23
53440;BME280;39333;47.044;15.080;2023-02-01T13:50:32;96103.41;;;9.92;34.22
53440;BME280;39333;47.044;15.080;2023-02-01T13:55:38;96122.19;;;10.07;33.72
53440;BME280;39333;47.044;15.080;2023-02-01T13:58:15;96125.13;;;9.77;34.69
53440;BME280;39333;47.044;15.080;2023-02-01T14:00:44;96116.03;;;9.85;34.92
53440;BME280;39333;47.044;15.080;2023-02-01T14:03:14;96129.09;;;9.92;34.89
53440;BME280;39333;47.044;15.080;2023-02-01T14:08:37;96127.97;;;9.88;34.47
53440;BME280;39333;47.044;15.080;2023-02-01T14:11:04;96125.81;;;10.01;35.27
53440;BME280;39333;47.044;15.080;2023-02-01T14:21:30;96134.34;;;9.75;36.32
53440;BME280;39333;47.044;15.080;2023-02-01T14:29:09;96146.97;;;9.68;34.81
53440;BME280;39333;47.044;15.080;2023-02-01T14:37:23;96160.94;;;9.80;35.37
53440;BME280;39333;47.044;15.080;2023-02-01T14:39:55;96152.16;;;9.34;34.01
53440;BME280;39333;47.044;15.080;2023-02-01T14:50:37;96176.88;;;8.53;36.24
53440;BME280;39333;47.044;15.080;2023-02-01T15:01:04;96188.25;;;8.77;37.06
53440;BME280;39333;47.044;15.080;2023-02-01T15:03:37;96200.28;;;8.26;37.25
53440;BME280;39333;47.044;15.080;2023-02-01T15:06:40;96197.72;;;8.20;38.14
53440;BME280;39333;47.044;15.080;2023-02-01T15:14:27;96193.59;;;7.82;38.69
53440;BME280;39333;47.044;15.080;2023-02-01T15:16:55;96197.16;;;7.76;38.86
53440;BME280;39333;47.044;15.080;2023-02-01T15:19:26;96204.13;;;7.70;39.39
53440;BME280;39333;47.044;15.080;2023-02-01T15:21:55;96209.84;;;7.67;39.77
53440;BME280;39333;47.044;15.080;2023-02-01T15:24:28;96193.16;;;7.55;39.58
53440;BME280;39333;47.044;15.080;2023-02-01T15:27:02;96199.53;;;7.48;39.25
53440;BME280;39333;47.044;15.080;2023-02-01T15:29:30;96202.88;;;7.43;40.25
53440;BME280;39333;47.044;15.080;2023-02-01T15:32:00;96196.50;;;7.32;40.39
53440;BME280;39333;47.044;15.080;2023-02-01T15:34:48;96200.16;;;7.31;40.22
53440;BME280;39333;47.044;15.080;2023-02-01T15:37:16;96208.53;;;7.28;40.90
53440;BME280;39333;47.044;15.080;2023-02-01T15:42:56;96213.59;;;7.12;40.80
53440;BME280;39333;47.044;15.080;2023-02-01T15:45:29;96207.94;;;7.08;39.85
53440;BME280;39333;47.044;15.080;2023-02-01T15:47:59;96207.06;;;6.96;40.80
53440;BME280;39333;47.044;15.080;2023-02-01T15:50:29;96223.75;;;6.90;40.23
53440;BME280;39333;47.044;15.080;2023-02-01T15:52:57;96225.63;;;6.83;40.40
53440;BME280;39333;47.044;15.080;2023-02-01T15:57:53;96232.19;;;6.80;41.42
53440;BME280;39333;47.044;15.080;2023-02-01T16:00:32;96226.56;;;6.70;41.52
53440;BME280;39333;47.044;15.080;2023-02-01T16:03:17;96233.16;;;6.61;41.87
53440;BME280;39333;47.044;15.080;2023-02-01T16:05:57;96235.84;;;6.54;42.04
53440;BME280;39333;47.044;15.080;2023-02-01T16:08:27;96233.63;;;6.51;41.97